Terminal Aerodrome Forecast
Issued by NWS

Home | Current Version | Previous Version | Text Only | Print | Product List | Glossary Off
Versions: 1 2 3 4 5 6 7 8 9 10 11 12 13 14

258
FTUS43 KIWX 250304 AAB
TAFSBN
TAF AMD
KSBN 250304Z 2503/2524 28012KT P6SM BKN007 OVC025
     FM250400 26012KT P6SM OVC025
     FM251000 26015G23KT 3SM -SHSN SCT009 OVC015
     FM251700 28017G25KT P6SM VCSH OVC025
     FM252100 28015KT P6SM OVC040=

USA.gov is the U.S. government's official web portal to all federal, state and local government web resources and services.